createdAt,value
2023-02-14T00:01:29.298Z,102770.91
2023-02-14T00:04:00.720Z,102776.91
2023-02-14T00:06:29.878Z,102771.44
2023-02-14T00:08:57.913Z,102774.84
2023-02-14T00:11:25.782Z,102749.41
2023-02-14T00:14:11.358Z,102766.28
2023-02-14T00:16:39.405Z,102774.88
2023-02-14T00:19:09.442Z,102704.25
2023-02-14T00:21:38.884Z,102784.75
2023-02-14T00:24:09.840Z,102781.25
2023-02-14T00:26:39.259Z,102795.16
2023-02-14T00:29:08.118Z,102790.75
2023-02-14T00:31:37.300Z,102787.09
2023-02-14T00:34:05.781Z,102787.88
2023-02-14T00:36:35.346Z,102773.28
2023-02-14T00:39:03.909Z,102791.28
2023-02-14T00:41:31.840Z,102774.19
2023-02-14T00:44:00.415Z,102786.72
2023-02-14T00:46:28.937Z,102713.88
2023-02-14T00:48:57.196Z,102802.00
2023-02-14T00:51:25.817Z,102800.97
2023-02-14T00:53:55.171Z,102802.53
2023-02-14T00:56:23.050Z,102803.19
2023-02-14T00:58:51.092Z,102790.84
2023-02-14T01:02:08.729Z,102780.22
2023-02-14T01:04:36.709Z,102776.31
2023-02-14T01:07:04.702Z,102796.88
2023-02-14T01:09:34.060Z,102795.72
2023-02-14T01:12:01.995Z,102803.38
2023-02-14T01:14:29.788Z,102799.75
2023-02-14T01:16:57.591Z,102808.22
2023-02-14T01:19:25.583Z,102807.06
2023-02-14T01:21:53.717Z,102808.50
2023-02-14T01:24:21.516Z,102793.53
2023-02-14T01:26:50.782Z,102789.00
2023-02-14T01:29:18.641Z,102788.63
2023-02-14T01:31:48.487Z,102796.03
2023-02-14T01:34:16.371Z,102781.78
2023-02-14T01:36:44.407Z,102794.38
2023-02-14T01:39:14.681Z,102788.41
2023-02-14T01:41:44.260Z,102754.81
2023-02-14T01:44:45.225Z,102801.41
2023-02-14T01:47:15.578Z,102824.25
2023-02-14T01:49:48.174Z,102800.38
2023-02-14T01:52:20.763Z,102820.38
2023-02-14T01:54:53.227Z,102819.84
2023-02-14T01:57:23.555Z,102821.28
2023-02-14T01:59:55.256Z,102828.94
2023-02-14T02:02:24.646Z,102827.63
2023-02-14T02:04:57.087Z,102839.56
2023-02-14T02:07:26.857Z,102824.13
2023-02-14T02:09:57.768Z,102814.00
2023-02-14T02:12:25.761Z,102835.94
2023-02-14T02:14:56.766Z,102833.84
2023-02-14T02:17:34.634Z,102831.78
2023-02-14T02:20:37.742Z,102823.97
2023-02-14T02:23:47.481Z,102832.81
2023-02-14T02:26:50.990Z,102798.78
2023-02-14T02:29:48.944Z,102842.16
2023-02-14T02:32:50.413Z,102845.38
2023-02-14T02:35:29.638Z,102853.03
2023-02-14T02:38:13.240Z,102844.34
2023-02-14T02:40:49.868Z,102847.97
2023-02-14T02:43:32.087Z,102837.72
2023-02-14T02:46:23.402Z,102828.63
2023-02-14T02:48:59.696Z,102853.84
2023-02-14T02:51:56.030Z,102781.38
2023-02-14T02:54:35.541Z,102856.19
2023-02-14T02:57:08.181Z,102854.50
2023-02-14T02:59:40.182Z,102841.91
2023-02-14T03:02:12.376Z,102804.34
2023-02-14T03:04:53.575Z,102858.78
2023-02-14T03:07:39.551Z,102685.03
2023-02-14T03:10:13.285Z,102866.31
2023-02-14T03:13:20.478Z,102857.47
2023-02-14T03:15:57.990Z,102860.84
2023-02-14T03:18:58.115Z,102834.59
2023-02-14T03:21:33.989Z,102864.63
2023-02-14T03:24:10.752Z,102803.28
2023-02-14T03:26:44.530Z,102867.84
2023-02-14T03:29:22.040Z,102864.34
2023-02-14T03:32:00.847Z,102859.16
2023-02-14T03:34:35.926Z,102865.91
2023-02-14T03:37:10.533Z,102870.84
2023-02-14T03:39:46.868Z,102862.25
2023-02-14T03:42:20.681Z,102876.81
2023-02-14T03:44:50.529Z,102874.97
2023-02-14T03:47:22.050Z,102881.09
2023-02-14T03:49:54.657Z,102874.06
2023-02-14T03:52:24.865Z,102888.09
2023-02-14T03:54:57.774Z,102879.53
2023-02-14T03:57:30.500Z,102877.84
2023-02-14T03:59:58.727Z,102863.28
2023-02-14T04:02:32.869Z,102875.38
2023-02-14T04:05:03.358Z,102877.97
2023-02-14T04:07:31.403Z,102872.53
2023-02-14T04:10:00.693Z,102884.72
2023-02-14T04:12:37.471Z,102888.38
2023-02-14T04:15:07.305Z,102885.91
2023-02-14T04:17:52.952Z,102730.69
2023-02-14T04:20:21.295Z,102886.03
2023-02-14T04:22:49.171Z,102874.88
2023-02-14T04:25:19.199Z,102873.56
2023-02-14T04:27:47.437Z,102890.31
2023-02-14T04:30:18.020Z,102885.00
2023-02-14T04:32:46.308Z,102831.31
2023-02-14T04:35:14.495Z,102889.53
2023-02-14T04:37:42.892Z,102884.72
2023-02-14T04:40:11.740Z,102893.94
2023-02-14T04:42:41.104Z,102870.16
2023-02-14T04:45:09.584Z,102884.47
2023-02-14T04:47:37.512Z,102894.97
2023-02-14T04:50:06.797Z,102904.56
2023-02-14T04:52:34.641Z,102866.09
2023-02-14T04:55:02.636Z,102896.78
2023-02-14T04:57:30.635Z,102890.94
2023-02-14T04:59:59.829Z,102897.31
2023-02-14T05:02:27.716Z,102897.16
2023-02-14T05:04:55.811Z,102855.19
2023-02-14T05:07:23.683Z,102845.19
2023-02-14T05:09:51.542Z,102874.03
2023-02-14T05:12:19.564Z,102903.78
2023-02-14T05:14:47.920Z,102908.97
2023-02-14T05:17:17.435Z,102895.84
2023-02-14T05:19:45.548Z,102900.25
2023-02-14T05:22:13.486Z,102893.25
2023-02-14T05:24:41.359Z,102900.25
2023-02-14T05:27:11.738Z,102897.53
2023-02-14T05:29:42.413Z,102902.59
2023-02-14T05:32:10.372Z,102901.53
2023-02-14T05:34:39.759Z,102908.56
2023-02-14T05:37:07.590Z,102907.00
2023-02-14T05:39:35.561Z,102908.81
2023-02-14T05:42:03.484Z,102903.00
2023-02-14T05:44:31.334Z,102904.94
2023-02-14T05:46:59.335Z,102906.00
2023-02-14T05:49:27.228Z,102908.84
2023-02-14T05:51:56.450Z,102912.09
2023-02-14T05:54:24.421Z,102913.41
2023-02-14T05:56:52.345Z,102915.88
2023-02-14T05:59:20.377Z,102909.00
2023-02-14T06:01:48.331Z,102914.19
2023-02-14T06:04:16.291Z,102874.66
2023-02-14T06:06:44.167Z,102916.50
2023-02-14T06:09:13.435Z,102919.75
2023-02-14T06:11:41.424Z,102901.03
2023-02-14T06:14:09.280Z,102916.25
2023-02-14T06:16:37.655Z,102876.56
2023-02-14T06:19:05.583Z,102918.97
2023-02-14T06:21:33.392Z,102920.03
2023-02-14T06:24:01.354Z,102925.22
2023-02-14T06:26:31.233Z,102897.63
2023-02-14T06:29:00.235Z,102921.03
2023-02-14T06:31:28.330Z,102921.16
2023-02-14T06:33:56.653Z,102895.78
2023-02-14T06:36:25.157Z,102923.63
2023-02-14T06:38:53.137Z,102921.91
2023-02-14T06:41:21.390Z,102935.56
2023-02-14T06:43:50.741Z,102917.34
2023-02-14T06:46:19.612Z,102930.09
2023-02-14T06:48:47.838Z,102929.06
2023-02-14T06:51:15.717Z,102913.44
2023-02-14T06:53:43.646Z,102934.75
2023-02-14T06:56:11.649Z,102936.94
2023-02-14T06:58:39.475Z,102940.56
2023-02-14T07:01:08.840Z,102912.75
2023-02-14T07:03:36.797Z,102946.94
2023-02-14T07:06:05.098Z,102961.75
2023-02-14T07:08:33.188Z,102932.00
2023-02-14T07:11:01.504Z,102944.91
2023-02-14T07:13:29.642Z,102948.53
2023-02-14T07:15:57.757Z,102958.41
2023-02-14T07:18:27.090Z,102953.22
2023-02-14T07:20:54.907Z,102938.94
2023-02-14T07:23:22.830Z,102895.09
2023-02-14T07:25:50.767Z,102942.03
2023-02-14T07:28:18.592Z,102959.97
2023-02-14T07:30:46.643Z,102958.91
2023-02-14T07:33:14.991Z,102943.84
2023-02-14T07:35:44.403Z,102938.13
2023-02-14T07:38:12.493Z,102951.41
2023-02-14T07:40:40.383Z,102949.06
2023-02-14T07:43:08.293Z,102951.81
2023-02-14T07:45:36.538Z,102956.88
2023-02-14T07:48:04.767Z,102765.84
2023-02-14T07:50:32.583Z,102962.47
2023-02-14T07:53:01.881Z,102955.84
2023-02-14T07:55:29.858Z,102957.41
2023-02-14T07:57:57.652Z,102954.66
2023-02-14T08:00:25.697Z,102958.84
2023-02-14T08:02:53.775Z,102923.81
2023-02-14T08:05:21.636Z,102963.13
2023-02-14T08:07:50.558Z,102958.22
2023-02-14T08:10:20.085Z,102779.13
2023-02-14T08:13:00.055Z,102964.72
2023-02-14T08:15:47.208Z,102962.38
2023-02-14T08:18:15.427Z,102933.53
2023-02-14T08:20:43.788Z,102962.16
2023-02-14T08:23:11.805Z,102967.47
2023-02-14T08:25:41.365Z,102958.25
2023-02-14T08:28:09.405Z,102953.59
2023-02-14T08:30:38.675Z,102945.41
2023-02-14T08:33:06.909Z,102963.72
2023-02-14T08:35:35.594Z,102899.75
2023-02-14T08:38:03.867Z,102949.56
2023-02-14T08:40:31.904Z,102954.91
2023-02-14T08:43:01.220Z,102937.63
2023-02-14T08:45:29.159Z,102933.59
2023-02-14T08:48:02.446Z,102952.06
2023-02-14T08:50:30.517Z,102956.75
2023-02-14T08:52:58.508Z,102956.38
2023-02-14T08:55:27.628Z,102962.47
2023-02-14T08:57:56.668Z,102914.41
2023-02-14T09:00:26.026Z,102968.47
2023-02-14T09:02:54.525Z,102966.38
2023-02-14T09:05:23.493Z,102966.66
2023-02-14T09:07:51.768Z,102972.88
2023-02-14T09:10:20.153Z,102949.34
2023-02-14T09:12:48.363Z,102966.66
2023-02-14T09:15:16.250Z,102969.13
2023-02-14T09:17:45.756Z,102952.59
2023-02-14T09:20:17.205Z,102954.41
2023-02-14T09:22:46.123Z,102961.44
2023-02-14T09:25:15.489Z,102785.97
2023-02-14T09:27:43.597Z,102953.03
2023-02-14T09:30:12.596Z,102954.28
2023-02-14T09:32:40.589Z,102933.56
2023-02-14T09:35:27.510Z,102954.78
2023-02-14T09:38:13.740Z,102957.25
2023-02-14T09:40:41.717Z,102956.50
2023-02-14T09:43:16.981Z,102945.25
2023-02-14T09:45:52.396Z,102942.91
2023-02-14T09:48:28.357Z,102930.88
2023-02-14T09:51:01.521Z,102930.88
2023-02-14T09:53:33.498Z,102944.88
2023-02-14T09:56:10.403Z,102927.03
2023-02-14T09:58:47.361Z,102943.34
2023-02-14T10:01:23.479Z,102942.88
2023-02-14T10:04:17.542Z,102941.09
2023-02-14T10:06:53.625Z,102929.78
2023-02-14T10:09:41.962Z,102928.94
2023-02-14T10:12:17.965Z,102929.72
2023-02-14T10:14:46.418Z,102875.81
2023-02-14T10:17:20.864Z,102927.88
2023-02-14T10:19:55.480Z,102889.38
2023-02-14T10:22:33.007Z,102907.50
2023-02-14T10:25:05.064Z,102918.34
2023-02-14T10:27:36.270Z,102860.78
2023-02-14T10:30:13.356Z,102919.16
2023-02-14T10:32:47.331Z,102904.88
2023-02-14T10:35:24.638Z,102890.84
2023-02-14T10:38:04.327Z,102918.00
2023-02-14T10:41:10.614Z,102919.09
2023-02-14T10:43:48.510Z,102905.06
2023-02-14T10:46:30.814Z,102915.91
2023-02-14T10:49:03.401Z,102755.38
2023-02-14T10:51:37.191Z,102916.16
2023-02-14T10:54:18.433Z,102891.19
2023-02-14T10:56:51.621Z,102907.72
2023-02-14T10:59:24.459Z,102905.50
2023-02-14T11:01:55.735Z,102894.34
2023-02-14T11:04:26.225Z,102900.44
2023-02-14T11:06:54.561Z,102907.94
2023-02-14T11:09:24.697Z,102901.78
2023-02-14T11:11:55.203Z,102899.63
2023-02-14T11:14:26.835Z,102901.75
2023-02-14T11:16:56.134Z,102901.81
2023-02-14T11:19:27.639Z,102898.31
2023-02-14T11:21:57.318Z,102887.75
2023-02-14T11:24:32.604Z,102894.91
2023-02-14T11:27:03.002Z,102888.94
2023-02-14T11:29:34.491Z,102882.53
2023-02-14T11:32:09.889Z,102881.00
2023-02-14T11:34:41.101Z,102885.50
2023-02-14T11:37:26.936Z,102875.59
2023-02-14T11:39:59.223Z,102870.69
2023-02-14T11:42:36.523Z,102860.22
2023-02-14T11:45:06.018Z,102868.47
2023-02-14T11:47:37.384Z,102837.97
2023-02-14T11:50:13.650Z,102862.78
2023-02-14T11:52:50.983Z,102828.81
2023-02-14T11:55:28.350Z,102865.06
2023-02-14T11:57:57.895Z,102853.19
2023-02-14T12:00:27.103Z,102860.69
2023-02-14T12:02:56.892Z,102849.66
2023-02-14T12:05:29.068Z,102857.88
2023-02-14T12:07:58.810Z,102862.91
2023-02-14T12:10:30.183Z,102853.97
2023-02-14T12:13:02.004Z,102854.50
2023-02-14T12:15:37.828Z,102809.38
2023-02-14T12:18:30.825Z,102852.59
2023-02-14T12:21:05.108Z,102847.69
2023-02-14T12:23:42.173Z,102852.22
2023-02-14T12:26:19.011Z,102848.72
2023-02-14T12:28:52.466Z,102849.63
2023-02-14T12:31:20.947Z,102841.91
2023-02-14T12:33:50.523Z,102841.25
2023-02-14T12:36:35.036Z,102837.72
2023-02-14T12:39:13.884Z,102830.06
2023-02-14T12:41:52.973Z,102830.03
2023-02-14T12:44:31.060Z,102827.50
2023-02-14T12:47:12.942Z,102820.47
2023-02-14T12:50:00.153Z,102825.81
2023-02-14T12:52:48.366Z,102805.91
2023-02-14T12:55:40.027Z,102802.78
2023-02-14T12:58:16.094Z,102829.53
2023-02-14T13:00:53.571Z,102763.41
2023-02-14T13:04:09.247Z,102798.09
2023-02-14T13:06:39.692Z,102753.22
2023-02-14T13:09:23.961Z,102806.91
2023-02-14T13:12:03.197Z,102803.81
2023-02-14T13:14:45.703Z,102775.44
2023-02-14T13:17:27.412Z,102783.75
2023-02-14T13:20:05.352Z,102810.94
2023-02-14T13:22:35.337Z,102775.38
2023-02-14T13:25:07.086Z,102812.25
2023-02-14T13:27:40.093Z,102810.81
2023-02-14T13:30:20.241Z,102802.81
2023-02-14T13:32:51.471Z,102808.84
2023-02-14T13:35:22.880Z,102789.41
2023-02-14T13:37:54.692Z,102812.09
2023-02-14T13:40:24.915Z,102807.41
2023-02-14T13:42:56.406Z,102803.13
2023-02-14T13:45:54.807Z,102802.97
2023-02-14T13:48:25.237Z,102803.13
2023-02-14T13:50:58.058Z,102797.56
2023-02-14T13:53:38.530Z,102792.53
2023-02-14T13:56:28.476Z,102798.59
2023-02-14T13:58:59.895Z,102808.03
2023-02-14T14:01:35.921Z,102749.72
2023-02-14T14:04:06.369Z,102801.53
2023-02-14T14:07:07.549Z,102800.66
2023-02-14T14:09:56.923Z,102803.97
2023-02-14T14:12:55.012Z,102804.41
2023-02-14T14:15:22.888Z,102722.88
2023-02-14T14:18:27.703Z,102798.75
2023-02-14T14:20:55.548Z,102796.22
2023-02-14T14:23:32.939Z,102775.75
2023-02-14T14:26:02.167Z,102799.75
2023-02-14T14:28:33.102Z,102785.97
2023-02-14T14:31:01.438Z,102789.91
2023-02-14T14:33:33.174Z,102767.59
2023-02-14T14:36:04.748Z,102784.28
2023-02-14T14:38:35.735Z,102786.81
2023-02-14T14:41:03.840Z,102791.94
2023-02-14T14:43:35.032Z,102775.75
2023-02-14T14:46:04.607Z,102784.09
2023-02-14T14:48:39.021Z,102781.78
2023-02-14T14:51:08.602Z,102773.81
2023-02-14T14:53:44.585Z,102770.38
2023-02-14T14:56:14.587Z,102768.38
2023-02-14T14:58:43.045Z,102774.19
2023-02-14T15:01:21.407Z,102774.78
2023-02-14T15:03:50.687Z,102769.34
2023-02-14T15:06:21.390Z,102769.81
2023-02-14T15:08:51.424Z,102771.69
2023-02-14T15:11:37.418Z,102769.47
2023-02-14T15:14:09.120Z,102769.53
2023-02-14T15:16:45.533Z,102728.03
2023-02-14T15:19:22.637Z,102760.63
2023-02-14T15:21:51.641Z,102705.34
2023-02-14T15:24:20.916Z,102767.06
2023-02-14T15:26:52.550Z,102772.88
2023-02-14T15:29:23.748Z,102765.19
2023-02-14T15:31:52.801Z,102764.63
2023-02-14T15:34:25.793Z,102764.09
2023-02-14T15:36:57.567Z,102761.75
2023-02-14T15:39:31.789Z,102766.31
2023-02-14T15:41:59.740Z,102773.69
2023-02-14T15:44:27.911Z,102753.28
2023-02-14T15:46:57.958Z,102755.91
2023-02-14T15:49:34.282Z,102778.25
2023-02-14T15:52:05.180Z,102772.47
2023-02-14T15:54:38.198Z,102763.75
2023-02-14T15:57:08.622Z,102775.09
2023-02-14T15:59:41.155Z,102773.94
2023-02-14T16:02:28.466Z,102771.22
2023-02-14T16:05:05.131Z,102778.94
2023-02-14T16:07:33.099Z,102765.91
2023-02-14T16:10:24.341Z,102777.78
2023-02-14T16:12:57.851Z,102711.09
2023-02-14T16:15:27.887Z,102769.84
2023-02-14T16:17:55.836Z,102758.94
2023-02-14T16:20:43.470Z,102763.69
2023-02-14T16:23:32.773Z,102772.06
2023-02-14T16:26:00.971Z,102762.09
2023-02-14T16:28:32.206Z,102772.72
2023-02-14T16:31:03.030Z,102773.13
2023-02-14T16:33:35.151Z,102775.03
2023-02-14T16:36:09.534Z,102776.66
2023-02-14T16:38:43.585Z,102755.66
2023-02-14T16:41:18.463Z,102770.47
2023-02-14T16:43:46.836Z,102787.69
2023-02-14T16:46:16.693Z,102779.13
2023-02-14T16:48:45.848Z,102782.16
2023-02-14T16:51:15.762Z,102738.81
2023-02-14T16:53:44.565Z,102734.97
2023-02-14T16:56:16.983Z,102791.28
2023-02-14T16:58:45.154Z,102785.38
2023-02-14T17:01:13.015Z,102790.97
2023-02-14T17:03:42.688Z,102725.47
2023-02-14T17:06:17.482Z,102783.34
2023-02-14T17:08:46.761Z,102781.16
2023-02-14T17:11:14.817Z,102730.03
2023-02-14T17:13:45.710Z,102767.22
2023-02-14T17:16:16.610Z,102789.63
2023-02-14T17:18:47.719Z,102789.78
2023-02-14T17:21:18.767Z,102761.00
2023-02-14T17:23:46.765Z,102789.44
2023-02-14T17:26:14.738Z,102744.53
2023-02-14T17:28:42.684Z,102785.69
2023-02-14T17:31:11.001Z,102793.47
2023-02-14T17:33:39.065Z,102805.56
2023-02-14T17:36:11.704Z,102802.19
2023-02-14T17:38:43.431Z,102785.03
2023-02-14T17:41:16.629Z,102705.84
2023-02-14T17:43:45.441Z,102802.41
2023-02-14T17:46:14.570Z,102809.00
2023-02-14T17:48:45.506Z,102798.19
2023-02-14T17:51:15.017Z,102762.31
2023-02-14T17:53:44.504Z,102806.03
2023-02-14T17:56:14.769Z,102813.63
2023-02-14T17:58:42.585Z,102814.50
2023-02-14T18:01:13.108Z,102810.53
2023-02-14T18:03:41.771Z,102817.47
2023-02-14T18:06:11.384Z,102813.13
2023-02-14T18:08:41.154Z,102814.47
2023-02-14T18:11:12.850Z,102814.00
2023-02-14T18:13:41.395Z,102797.13
2023-02-14T18:16:11.433Z,102809.88
2023-02-14T18:18:40.218Z,102799.16
2023-02-14T18:21:10.252Z,102803.47
2023-02-14T18:23:38.937Z,102754.53
2023-02-14T18:26:09.335Z,102805.72
2023-02-14T18:28:38.876Z,102808.97
2023-02-14T18:31:09.645Z,102824.72
2023-02-14T18:33:38.791Z,102800.03
2023-02-14T18:36:12.004Z,102815.72
2023-02-14T18:38:40.372Z,102781.72
2023-02-14T18:41:10.925Z,102812.50
2023-02-14T18:43:41.308Z,102819.94
2023-02-14T18:46:11.299Z,102816.63
2023-02-14T18:48:40.071Z,102811.31
2023-02-14T18:51:08.811Z,102795.09
2023-02-14T18:53:37.427Z,102777.03
2023-02-14T18:56:06.266Z,102780.06
2023-02-14T18:58:34.641Z,102798.25
2023-02-14T19:01:10.254Z,102810.56
2023-02-14T19:03:38.767Z,102783.38
2023-02-14T19:06:08.420Z,102799.75
2023-02-14T19:08:38.491Z,102790.63
2023-02-14T19:11:11.314Z,102804.56
2023-02-14T19:13:39.657Z,102807.88
2023-02-14T19:16:13.494Z,102804.53
2023-02-14T19:18:41.854Z,102794.81
2023-02-14T19:21:11.307Z,102792.41
2023-02-14T19:23:39.386Z,102805.75
2023-02-14T19:26:11.672Z,102785.13
2023-02-14T19:28:39.499Z,102804.53
2023-02-14T19:31:07.558Z,102755.03
2023-02-14T19:33:40.631Z,102794.13
2023-02-14T19:36:12.938Z,102793.31
2023-02-14T19:38:41.526Z,102792.97
2023-02-14T19:41:16.686Z,102792.84
2023-02-14T19:43:45.894Z,102766.53
2023-02-14T19:46:14.047Z,102732.09
2023-02-14T19:48:44.736Z,102775.06
2023-02-14T19:51:16.457Z,102791.16
2023-02-14T19:53:44.523Z,102786.13
2023-02-14T19:56:12.910Z,102783.69
2023-02-14T19:58:41.790Z,102770.47
2023-02-14T20:01:20.905Z,102770.00
2023-02-14T20:03:50.271Z,102778.63
2023-02-14T20:06:18.093Z,102745.66
2023-02-14T20:08:47.676Z,102773.44
2023-02-14T20:11:26.888Z,102740.81
2023-02-14T20:13:55.699Z,102756.91
2023-02-14T20:16:23.801Z,102764.97
2023-02-14T20:18:53.412Z,102761.75
2023-02-14T20:21:24.284Z,102703.19
2023-02-14T20:23:52.345Z,102759.59
2023-02-14T20:26:20.320Z,102772.66
2023-02-14T20:28:48.955Z,102755.13
2023-02-14T20:31:19.571Z,102756.81
2023-02-14T20:33:50.600Z,102757.09
2023-02-14T20:36:20.506Z,102759.06
2023-02-14T20:38:48.936Z,102756.13
2023-02-14T20:41:17.709Z,102755.00
2023-02-14T20:43:45.632Z,102759.72
2023-02-14T20:46:13.494Z,102755.44
2023-02-14T20:48:41.416Z,102751.16
2023-02-14T20:51:13.205Z,102753.63
2023-02-14T20:53:43.644Z,102749.69
2023-02-14T20:56:12.427Z,102746.34
2023-02-14T20:58:40.826Z,102751.66
2023-02-14T21:01:10.224Z,102741.94
2023-02-14T21:03:38.573Z,102741.94
2023-02-14T21:06:08.757Z,102742.69
2023-02-14T21:08:37.567Z,102670.56
2023-02-14T21:11:08.117Z,102755.56
2023-02-14T21:13:36.874Z,102753.63
2023-02-14T21:16:05.987Z,102760.47
2023-02-14T21:18:34.527Z,102737.38
2023-02-14T21:21:06.846Z,102740.25
2023-02-14T21:23:34.991Z,102759.22
2023-02-14T21:26:02.809Z,102707.31
2023-02-14T21:28:32.176Z,102761.88
2023-02-14T21:31:04.662Z,102749.22
2023-02-14T21:33:33.579Z,102744.66
2023-02-14T21:36:07.088Z,102752.38
2023-02-14T21:38:35.232Z,102690.19
2023-02-14T21:41:05.125Z,102748.72
2023-02-14T21:43:37.995Z,102734.94
2023-02-14T21:46:06.612Z,102737.47
2023-02-14T21:48:52.260Z,102739.13
2023-02-14T21:51:20.900Z,102744.94
2023-02-14T21:53:49.902Z,102749.63
2023-02-14T21:56:19.940Z,102743.41
2023-02-14T21:58:50.865Z,102749.63
2023-02-14T22:01:20.367Z,102698.06
2023-02-14T22:03:48.486Z,102750.06
2023-02-14T22:06:17.137Z,102751.25
2023-02-14T22:08:45.378Z,102744.38
2023-02-14T22:11:15.890Z,102739.34
2023-02-14T22:13:44.883Z,102740.38
2023-02-14T22:16:16.974Z,102737.81
2023-02-14T22:18:47.345Z,102738.06
2023-02-14T22:21:19.156Z,102732.91
2023-02-14T22:23:47.385Z,102727.78
2023-02-14T22:26:17.370Z,102734.72
2023-02-14T22:28:48.225Z,102704.34
2023-02-14T22:31:19.213Z,102696.88
2023-02-14T22:33:47.973Z,102721.91
2023-02-14T22:36:16.136Z,102735.38
2023-02-14T22:38:44.550Z,102719.84
2023-02-14T22:41:14.310Z,102717.38
2023-02-14T22:43:43.179Z,102647.06
2023-02-14T22:46:12.806Z,102687.81
2023-02-14T22:48:42.423Z,102703.38
2023-02-14T22:51:19.354Z,102694.97
2023-02-14T22:53:47.385Z,102707.97
2023-02-14T22:56:17.434Z,102700.34
2023-02-14T22:58:46.421Z,102692.44
2023-02-14T23:01:15.417Z,102694.25
2023-02-14T23:03:45.812Z,102656.50
2023-02-14T23:06:14.590Z,102512.53
2023-02-14T23:08:43.693Z,102688.84
2023-02-14T23:11:13.648Z,102661.72
2023-02-14T23:13:58.932Z,102688.84
2023-02-14T23:16:44.372Z,102681.06
2023-02-14T23:19:33.285Z,102516.16
2023-02-14T23:22:04.886Z,102673.28
2023-02-14T23:24:32.715Z,102672.66
2023-02-14T23:27:01.144Z,102654.63
2023-02-14T23:29:29.146Z,102678.09
2023-02-14T23:31:57.579Z,102620.13
2023-02-14T23:34:28.147Z,102668.00
2023-02-14T23:36:56.119Z,102668.16
2023-02-14T23:39:24.070Z,102671.78
2023-02-14T23:41:52.059Z,102677.09
2023-02-14T23:44:21.503Z,102670.22
2023-02-14T23:46:50.743Z,102666.88
2023-02-14T23:49:19.111Z,102665.19
2023-02-14T23:51:50.027Z,102619.63
2023-02-14T23:54:19.075Z,102671.41
2023-02-14T23:56:47.194Z,102657.13
2023-02-14T23:59:16.441Z,102661.94
